Terminal Aerodrome Forecast
Issued by NWS Wilmington, NC

Home | Current Version | Previous Version | Text Only | Print | Product List | Glossary On
Versions: 1 2 3 4 5 6 7 8 9 10 11 12 13 14 15 16 17
220
FTUS42 KILM 241730
TAFFLO
TAF
KFLO 241730Z 2418/2518 24012G22KT P6SM VCTS SCT035CB
     FM242000 25012G20KT P6SM VCTS BKN035CB
     FM250300 25004KT P6SM VCSH BKN040
     FM250700 21006KT P6SM BKN070
     FM251200 28004KT P6SM BKN040=

USA.gov is the U.S. government's official web portal to all federal, state and local government web resources and services.